sensor_id;sensor_type;location;lat;lon;timestamp;temperature;humidity
13682;DHT22;6913;49.892;7.936;2023-12-28T00:00:09;1.30;99.90
13682;DHT22;6913;49.892;7.936;2023-12-28T00:02:36;1.20;99.90
13682;DHT22;6913;49.892;7.936;2023-12-28T00:05:04;1.20;99.90
13682;DHT22;6913;49.892;7.936;2023-12-28T00:07:31;1.20;99.90
13682;DHT22;6913;49.892;7.936;2023-12-28T00:09:58;1.10;99.90
13682;DHT22;6913;49.892;7.936;2023-12-28T00:12:25;1.20;99.90
13682;DHT22;6913;49.892;7.936;2023-12-28T00:14:52;1.10;99.90
13682;DHT22;6913;49.892;7.936;2023-12-28T00:17:19;1.20;99.90
13682;DHT22;6913;49.892;7.936;2023-12-28T00:19:46;1.00;99.90
13682;DHT22;6913;49.892;7.936;2023-12-28T00:22:14;1.50;99.90
13682;DHT22;6913;49.892;7.936;2023-12-28T00:24:41;1.30;99.90
13682;DHT22;6913;49.892;7.936;2023-12-28T00:27:08;1.40;99.90
13682;DHT22;6913;49.892;7.936;2023-12-28T00:29:34;1.50;99.90
13682;DHT22;6913;49.892;7.936;2023-12-28T00:32:04;1.50;99.90
13682;DHT22;6913;49.892;7.936;2023-12-28T00:34:31;1.40;99.90
13682;DHT22;6913;49.892;7.936;2023-12-28T00:36:58;1.50;99.90
13682;DHT22;6913;49.892;7.936;2023-12-28T00:39:26;1.50;99.90
13682;DHT22;6913;49.892;7.936;2023-12-28T00:41:53;1.40;99.90
13682;DHT22;6913;49.892;7.936;2023-12-28T00:44:20;1.40;99.90
13682;DHT22;6913;49.892;7.936;2023-12-28T00:46:47;1.40;99.90
13682;DHT22;6913;49.892;7.936;2023-12-28T00:49:14;1.50;99.90
13682;DHT22;6913;49.892;7.936;2023-12-28T00:51:41;2.20;99.90
13682;DHT22;6913;49.892;7.936;2023-12-28T00:54:08;1.60;99.90
13682;DHT22;6913;49.892;7.936;2023-12-28T00:56:36;1.70;99.90
13682;DHT22;6913;49.892;7.936;2023-12-28T00:59:03;1.70;99.90
13682;DHT22;6913;49.892;7.936;2023-12-28T01:01:30;2.40;99.90
13682;DHT22;6913;49.892;7.936;2023-12-28T01:03:57;1.90;99.90
13682;DHT22;6913;49.892;7.936;2023-12-28T01:06:24;2.00;99.90
13682;DHT22;6913;49.892;7.936;2023-12-28T01:08:53;2.50;99.90
13682;DHT22;6913;49.892;7.936;2023-12-28T01:11:20;2.20;99.90
13682;DHT22;6913;49.892;7.936;2023-12-28T01:13:48;2.20;99.90
13682;DHT22;6913;49.892;7.936;2023-12-28T01:16:15;2.30;99.90
13682;DHT22;6913;49.892;7.936;2023-12-28T01:18:42;2.40;99.90
13682;DHT22;6913;49.892;7.936;2023-12-28T01:21:09;2.50;99.90
13682;DHT22;6913;49.892;7.936;2023-12-28T01:23:36;2.80;99.90
13682;DHT22;6913;49.892;7.936;2023-12-28T01:26:03;2.60;99.90
13682;DHT22;6913;49.892;7.936;2023-12-28T01:28:29;2.70;99.90
13682;DHT22;6913;49.892;7.936;2023-12-28T01:30:58;2.80;99.90
13682;DHT22;6913;49.892;7.936;2023-12-28T01:33:24;2.80;99.90
13682;DHT22;6913;49.892;7.936;2023-12-28T01:35:51;2.90;99.90
13682;DHT22;6913;49.892;7.936;2023-12-28T01:38:18;3.60;99.90
13682;DHT22;6913;49.892;7.936;2023-12-28T01:40:45;2.90;99.90
13682;DHT22;6913;49.892;7.936;2023-12-28T01:43:12;2.90;99.90
13682;DHT22;6913;49.892;7.936;2023-12-28T01:45:39;3.00;99.90
13682;DHT22;6913;49.892;7.936;2023-12-28T01:48:07;3.00;99.90
13682;DHT22;6913;49.892;7.936;2023-12-28T01:50:35;3.10;99.90
13682;DHT22;6913;49.892;7.936;2023-12-28T01:53:03;3.10;99.90
13682;DHT22;6913;49.892;7.936;2023-12-28T01:55:30;3.20;99.90
13682;DHT22;6913;49.892;7.936;2023-12-28T01:57:58;3.60;99.90
13682;DHT22;6913;49.892;7.936;2023-12-28T02:00:25;3.30;99.90
13682;DHT22;6913;49.892;7.936;2023-12-28T02:02:52;3.40;99.90
13682;DHT22;6913;49.892;7.936;2023-12-28T02:05:21;3.40;99.90
13682;DHT22;6913;49.892;7.936;2023-12-28T02:07:48;3.50;99.90
13682;DHT22;6913;49.892;7.936;2023-12-28T02:10:15;3.60;99.90
13682;DHT22;6913;49.892;7.936;2023-12-28T02:12:42;3.70;99.90
13682;DHT22;6913;49.892;7.936;2023-12-28T02:15:09;3.80;99.90
13682;DHT22;6913;49.892;7.936;2023-12-28T02:17:41;3.90;99.90
13682;DHT22;6913;49.892;7.936;2023-12-28T02:20:10;4.00;99.90
13682;DHT22;6913;49.892;7.936;2023-12-28T02:22:39;4.30;99.90
13682;DHT22;6913;49.892;7.936;2023-12-28T02:25:09;4.50;99.90
13682;DHT22;6913;49.892;7.936;2023-12-28T02:27:39;4.70;99.90
13682;DHT22;6913;49.892;7.936;2023-12-28T02:30:08;5.40;99.90
13682;DHT22;6913;49.892;7.936;2023-12-28T02:32:52;5.70;99.90
13682;DHT22;6913;49.892;7.936;2023-12-28T02:35:23;6.60;99.90
13682;DHT22;6913;49.892;7.936;2023-12-28T02:37:53;6.30;99.90
13682;DHT22;6913;49.892;7.936;2023-12-28T02:40:23;6.20;99.90
13682;DHT22;6913;49.892;7.936;2023-12-28T02:42:51;6.20;99.90
13682;DHT22;6913;49.892;7.936;2023-12-28T02:45:18;6.30;99.90
13682;DHT22;6913;49.892;7.936;2023-12-28T02:47:45;6.70;99.90
13682;DHT22;6913;49.892;7.936;2023-12-28T02:50:12;6.50;99.90
13682;DHT22;6913;49.892;7.936;2023-12-28T02:52:39;6.60;99.90
13682;DHT22;6913;49.892;7.936;2023-12-28T02:55:06;6.70;99.90
13682;DHT22;6913;49.892;7.936;2023-12-28T02:57:35;6.70;99.90
13682;DHT22;6913;49.892;7.936;2023-12-28T03:00:05;6.90;99.90
13682;DHT22;6913;49.892;7.936;2023-12-28T03:02:34;6.90;99.90
13682;DHT22;6913;49.892;7.936;2023-12-28T03:05:01;6.90;99.90
13682;DHT22;6913;49.892;7.936;2023-12-28T03:07:28;7.10;99.90
13682;DHT22;6913;49.892;7.936;2023-12-28T03:09:55;7.50;99.90
13682;DHT22;6913;49.892;7.936;2023-12-28T03:12:22;7.10;99.90
13682;DHT22;6913;49.892;7.936;2023-12-28T03:14:50;7.20;99.90
13682;DHT22;6913;49.892;7.936;2023-12-28T03:17:17;7.20;99.90
13682;DHT22;6913;49.892;7.936;2023-12-28T03:19:43;7.30;99.90
13682;DHT22;6913;49.892;7.936;2023-12-28T03:22:10;7.70;99.90
13682;DHT22;6913;49.892;7.936;2023-12-28T03:24:38;7.30;99.90
13682;DHT22;6913;49.892;7.936;2023-12-28T03:27:05;7.30;99.90
13682;DHT22;6913;49.892;7.936;2023-12-28T03:29:31;7.30;99.90
13682;DHT22;6913;49.892;7.936;2023-12-28T03:32:00;7.30;99.90
13682;DHT22;6913;49.892;7.936;2023-12-28T03:34:27;7.30;99.90
13682;DHT22;6913;49.892;7.936;2023-12-28T03:36:55;7.60;99.90
13682;DHT22;6913;49.892;7.936;2023-12-28T03:39:22;7.40;99.90
13682;DHT22;6913;49.892;7.936;2023-12-28T03:41:49;8.20;99.90
13682;DHT22;6913;49.892;7.936;2023-12-28T03:44:18;7.40;99.90
13682;DHT22;6913;49.892;7.936;2023-12-28T03:46:45;7.50;99.90
13682;DHT22;6913;49.892;7.936;2023-12-28T03:49:15;7.50;99.90
13682;DHT22;6913;49.892;7.936;2023-12-28T03:51:42;7.50;99.90
13682;DHT22;6913;49.892;7.936;2023-12-28T03:54:09;7.50;99.90
13682;DHT22;6913;49.892;7.936;2023-12-28T03:56:36;7.50;99.90
13682;DHT22;6913;49.892;7.936;2023-12-28T03:59:05;7.50;99.90
13682;DHT22;6913;49.892;7.936;2023-12-28T04:01:32;7.50;99.90
13682;DHT22;6913;49.892;7.936;2023-12-28T04:03:58;7.60;99.90
13682;DHT22;6913;49.892;7.936;2023-12-28T04:06:26;7.60;99.90
13682;DHT22;6913;49.892;7.936;2023-12-28T04:08:53;7.60;99.90
13682;DHT22;6913;49.892;7.936;2023-12-28T04:11:20;7.60;99.90
13682;DHT22;6913;49.892;7.936;2023-12-28T04:13:47;7.60;99.90
13682;DHT22;6913;49.892;7.936;2023-12-28T04:16:14;7.60;99.90
13682;DHT22;6913;49.892;7.936;2023-12-28T04:18:41;7.60;99.90
13682;DHT22;6913;49.892;7.936;2023-12-28T04:21:08;7.70;99.90
13682;DHT22;6913;49.892;7.936;2023-12-28T04:23:38;7.70;99.90
13682;DHT22;6913;49.892;7.936;2023-12-28T04:26:06;7.70;99.90
13682;DHT22;6913;49.892;7.936;2023-12-28T04:28:33;7.70;99.90
13682;DHT22;6913;49.892;7.936;2023-12-28T04:31:02;7.80;99.90
13682;DHT22;6913;49.892;7.936;2023-12-28T04:33:29;7.70;99.90
13682;DHT22;6913;49.892;7.936;2023-12-28T04:35:56;7.70;99.90
13682;DHT22;6913;49.892;7.936;2023-12-28T04:38:23;8.30;99.90
13682;DHT22;6913;49.892;7.936;2023-12-28T04:40:51;7.80;99.90
13682;DHT22;6913;49.892;7.936;2023-12-28T04:43:18;7.80;99.90
13682;DHT22;6913;49.892;7.936;2023-12-28T04:45:44;8.20;99.90
13682;DHT22;6913;49.892;7.936;2023-12-28T04:48:11;7.80;99.90
13682;DHT22;6913;49.892;7.936;2023-12-28T04:50:38;7.80;99.90
13682;DHT22;6913;49.892;7.936;2023-12-28T04:53:05;7.80;99.90
13682;DHT22;6913;49.892;7.936;2023-12-28T04:55:31;8.10;99.90
13682;DHT22;6913;49.892;7.936;2023-12-28T04:57:59;7.80;99.90
13682;DHT22;6913;49.892;7.936;2023-12-28T05:00:26;7.80;99.90
13682;DHT22;6913;49.892;7.936;2023-12-28T05:02:53;7.80;99.90
13682;DHT22;6913;49.892;7.936;2023-12-28T05:05:20;7.90;99.90
13682;DHT22;6913;49.892;7.936;2023-12-28T05:07:47;7.90;99.90
13682;DHT22;6913;49.892;7.936;2023-12-28T05:10:14;7.90;99.90
13682;DHT22;6913;49.892;7.936;2023-12-28T05:12:41;7.90;99.90
13682;DHT22;6913;49.892;7.936;2023-12-28T05:15:10;7.90;99.90
13682;DHT22;6913;49.892;7.936;2023-12-28T05:17:37;8.20;99.90
13682;DHT22;6913;49.892;7.936;2023-12-28T05:20:05;7.90;99.90
13682;DHT22;6913;49.892;7.936;2023-12-28T05:22:32;7.80;99.90
13682;DHT22;6913;49.892;7.936;2023-12-28T05:24:59;8.20;99.90
13682;DHT22;6913;49.892;7.936;2023-12-28T05:27:26;7.90;99.90
13682;DHT22;6913;49.892;7.936;2023-12-28T05:29:53;7.80;99.90
13682;DHT22;6913;49.892;7.936;2023-12-28T05:32:21;7.90;99.90
13682;DHT22;6913;49.892;7.936;2023-12-28T05:34:48;7.90;99.90
13682;DHT22;6913;49.892;7.936;2023-12-28T05:37:15;7.90;99.90
13682;DHT22;6913;49.892;7.936;2023-12-28T05:39:42;8.00;99.90
13682;DHT22;6913;49.892;7.936;2023-12-28T05:42:09;8.00;99.90
13682;DHT22;6913;49.892;7.936;2023-12-28T05:44:36;8.00;99.90
13682;DHT22;6913;49.892;7.936;2023-12-28T05:47:03;8.00;99.90
13682;DHT22;6913;49.892;7.936;2023-12-28T05:49:31;8.00;99.90
13682;DHT22;6913;49.892;7.936;2023-12-28T05:51:58;8.00;99.90
13682;DHT22;6913;49.892;7.936;2023-12-28T05:54:25;8.00;99.90
13682;DHT22;6913;49.892;7.936;2023-12-28T05:56:52;8.10;99.90
13682;DHT22;6913;49.892;7.936;2023-12-28T05:59:19;8.10;99.90
13682;DHT22;6913;49.892;7.936;2023-12-28T06:01:47;8.10;99.90
13682;DHT22;6913;49.892;7.936;2023-12-28T06:04:13;8.10;99.90
13682;DHT22;6913;49.892;7.936;2023-12-28T06:06:41;8.40;99.90
13682;DHT22;6913;49.892;7.936;2023-12-28T06:09:08;8.20;99.90
13682;DHT22;6913;49.892;7.936;2023-12-28T06:11:35;8.20;99.90
13682;DHT22;6913;49.892;7.936;2023-12-28T06:14:02;8.20;99.90
13682;DHT22;6913;49.892;7.936;2023-12-28T06:16:28;8.20;99.90
13682;DHT22;6913;49.892;7.936;2023-12-28T06:18:58;8.20;99.90
13682;DHT22;6913;49.892;7.936;2023-12-28T06:21:25;8.20;99.90
13682;DHT22;6913;49.892;7.936;2023-12-28T06:23:54;8.60;99.90
13682;DHT22;6913;49.892;7.936;2023-12-28T06:26:20;8.50;99.90
13682;DHT22;6913;49.892;7.936;2023-12-28T06:28:47;8.20;99.90
13682;DHT22;6913;49.892;7.936;2023-12-28T06:31:14;8.20;99.90
13682;DHT22;6913;49.892;7.936;2023-12-28T06:33:41;9.50;99.90
13682;DHT22;6913;49.892;7.936;2023-12-28T06:36:10;8.20;99.90
13682;DHT22;6913;49.892;7.936;2023-12-28T06:38:37;8.30;99.90
13682;DHT22;6913;49.892;7.936;2023-12-28T06:41:11;8.30;99.90
13682;DHT22;6913;49.892;7.936;2023-12-28T06:43:38;8.60;99.90
13682;DHT22;6913;49.892;7.936;2023-12-28T06:46:04;8.30;99.90
13682;DHT22;6913;49.892;7.936;2023-12-28T06:48:31;8.30;99.90
13682;DHT22;6913;49.892;7.936;2023-12-28T06:50:58;8.20;99.90
13682;DHT22;6913;49.892;7.936;2023-12-28T06:53:25;8.30;99.90
13682;DHT22;6913;49.892;7.936;2023-12-28T06:55:52;8.50;99.90
13682;DHT22;6913;49.892;7.936;2023-12-28T06:58:20;8.60;99.90
13682;DHT22;6913;49.892;7.936;2023-12-28T07:00:47;8.40;99.90
13682;DHT22;6913;49.892;7.936;2023-12-28T07:03:13;8.40;99.90
13682;DHT22;6913;49.892;7.936;2023-12-28T07:05:40;8.40;99.90
13682;DHT22;6913;49.892;7.936;2023-12-28T07:08:07;8.40;99.90
13682;DHT22;6913;49.892;7.936;2023-12-28T07:10:34;8.50;99.90
13682;DHT22;6913;49.892;7.936;2023-12-28T07:13:01;8.50;99.90
13682;DHT22;6913;49.892;7.936;2023-12-28T07:15:29;8.50;99.90
13682;DHT22;6913;49.892;7.936;2023-12-28T07:17:56;8.50;99.90
13682;DHT22;6913;49.892;7.936;2023-12-28T07:20:23;8.50;99.90
13682;DHT22;6913;49.892;7.936;2023-12-28T07:22:50;8.50;99.90
13682;DHT22;6913;49.892;7.936;2023-12-28T07:25:17;8.90;99.90
13682;DHT22;6913;49.892;7.936;2023-12-28T07:27:44;8.60;99.90
13682;DHT22;6913;49.892;7.936;2023-12-28T07:30:12;8.80;99.90
13682;DHT22;6913;49.892;7.936;2023-12-28T07:32:40;8.60;99.90
13682;DHT22;6913;49.892;7.936;2023-12-28T07:35:07;8.50;99.90
13682;DHT22;6913;49.892;7.936;2023-12-28T07:37:34;8.60;99.90
13682;DHT22;6913;49.892;7.936;2023-12-28T07:40:01;8.50;99.90
13682;DHT22;6913;49.892;7.936;2023-12-28T07:42:28;8.50;99.90
13682;DHT22;6913;49.892;7.936;2023-12-28T07:44:55;8.70;99.90
13682;DHT22;6913;49.892;7.936;2023-12-28T07:47:22;8.90;99.90
13682;DHT22;6913;49.892;7.936;2023-12-28T07:49:50;8.50;99.90
13682;DHT22;6913;49.892;7.936;2023-12-28T07:52:17;8.60;99.90
13682;DHT22;6913;49.892;7.936;2023-12-28T07:54:43;8.50;99.90
13682;DHT22;6913;49.892;7.936;2023-12-28T07:57:10;8.50;99.90
13682;DHT22;6913;49.892;7.936;2023-12-28T07:59:37;8.50;99.90
13682;DHT22;6913;49.892;7.936;2023-12-28T08:02:04;8.50;99.90
13682;DHT22;6913;49.892;7.936;2023-12-28T08:04:31;8.50;99.90
13682;DHT22;6913;49.892;7.936;2023-12-28T08:06:59;8.50;99.90
13682;DHT22;6913;49.892;7.936;2023-12-28T08:09:26;8.50;99.90
13682;DHT22;6913;49.892;7.936;2023-12-28T08:11:53;8.60;99.90
13682;DHT22;6913;49.892;7.936;2023-12-28T08:14:20;8.60;99.90
13682;DHT22;6913;49.892;7.936;2023-12-28T08:16:47;8.50;99.90
13682;DHT22;6913;49.892;7.936;2023-12-28T08:19:14;8.80;99.90
13682;DHT22;6913;49.892;7.936;2023-12-28T08:21:41;8.60;99.90
13682;DHT22;6913;49.892;7.936;2023-12-28T08:24:09;8.90;99.90
13682;DHT22;6913;49.892;7.936;2023-12-28T08:26:36;8.60;99.90
13682;DHT22;6913;49.892;7.936;2023-12-28T08:29:02;8.70;99.90
13682;DHT22;6913;49.892;7.936;2023-12-28T08:31:29;8.70;99.90
13682;DHT22;6913;49.892;7.936;2023-12-28T08:33:56;9.10;99.90
13682;DHT22;6913;49.892;7.936;2023-12-28T08:36:23;8.70;99.90
13682;DHT22;6913;49.892;7.936;2023-12-28T08:38:50;8.70;99.90
13682;DHT22;6913;49.892;7.936;2023-12-28T08:41:22;8.70;99.90
13682;DHT22;6913;49.892;7.936;2023-12-28T08:43:49;8.80;99.90
13682;DHT22;6913;49.892;7.936;2023-12-28T08:46:17;8.90;99.90
13682;DHT22;6913;49.892;7.936;2023-12-28T08:48:44;9.20;99.90
13682;DHT22;6913;49.892;7.936;2023-12-28T08:51:11;8.80;99.90
13682;DHT22;6913;49.892;7.936;2023-12-28T08:53:40;8.90;99.90
13682;DHT22;6913;49.892;7.936;2023-12-28T08:56:13;8.90;99.90
13682;DHT22;6913;49.892;7.936;2023-12-28T08:58:41;9.00;99.90
13682;DHT22;6913;49.892;7.936;2023-12-28T09:01:08;9.50;99.90
13682;DHT22;6913;49.892;7.936;2023-12-28T09:03:35;9.10;99.90
13682;DHT22;6913;49.892;7.936;2023-12-28T09:06:02;9.10;99.90
13682;DHT22;6913;49.892;7.936;2023-12-28T09:08:28;9.20;99.90
13682;DHT22;6913;49.892;7.936;2023-12-28T09:10:55;9.30;99.90
13682;DHT22;6913;49.892;7.936;2023-12-28T09:13:22;9.50;99.90
13682;DHT22;6913;49.892;7.936;2023-12-28T09:15:51;9.60;99.90
13682;DHT22;6913;49.892;7.936;2023-12-28T09:18:18;9.70;99.90
13682;DHT22;6913;49.892;7.936;2023-12-28T09:20:44;9.80;99.90
13682;DHT22;6913;49.892;7.936;2023-12-28T09:23:11;9.90;99.90
13682;DHT22;6913;49.892;7.936;2023-12-28T09:25:40;10.10;99.90
13682;DHT22;6913;49.892;7.936;2023-12-28T09:28:06;10.20;99.90
13682;DHT22;6913;49.892;7.936;2023-12-28T09:30:33;10.30;99.90
13682;DHT22;6913;49.892;7.936;2023-12-28T09:33:01;10.50;99.90
13682;DHT22;6913;49.892;7.936;2023-12-28T09:35:29;10.60;99.90
13682;DHT22;6913;49.892;7.936;2023-12-28T09:37:55;10.80;99.90
13682;DHT22;6913;49.892;7.936;2023-12-28T09:40:23;11.00;99.90
13682;DHT22;6913;49.892;7.936;2023-12-28T09:42:57;11.00;99.90
13682;DHT22;6913;49.892;7.936;2023-12-28T09:45:27;10.90;99.90
13682;DHT22;6913;49.892;7.936;2023-12-28T09:47:54;10.90;99.90
13682;DHT22;6913;49.892;7.936;2023-12-28T09:50:22;10.70;99.90
13682;DHT22;6913;49.892;7.936;2023-12-28T09:52:52;10.60;99.90
13682;DHT22;6913;49.892;7.936;2023-12-28T09:55:18;10.60;99.90
13682;DHT22;6913;49.892;7.936;2023-12-28T09:57:46;10.50;99.90
13682;DHT22;6913;49.892;7.936;2023-12-28T10:00:13;10.60;99.90
13682;DHT22;6913;49.892;7.936;2023-12-28T10:02:40;10.70;99.90
13682;DHT22;6913;49.892;7.936;2023-12-28T10:05:12;10.70;99.90
13682;DHT22;6913;49.892;7.936;2023-12-28T10:07:42;10.80;99.90
13682;DHT22;6913;49.892;7.936;2023-12-28T10:10:09;10.90;99.90
13682;DHT22;6913;49.892;7.936;2023-12-28T10:12:36;11.20;99.90
13682;DHT22;6913;49.892;7.936;2023-12-28T10:15:04;11.10;99.90
13682;DHT22;6913;49.892;7.936;2023-12-28T10:17:32;11.20;99.90
13682;DHT22;6913;49.892;7.936;2023-12-28T10:19:59;11.50;99.90
13682;DHT22;6913;49.892;7.936;2023-12-28T10:22:30;11.90;99.90
13682;DHT22;6913;49.892;7.936;2023-12-28T10:24:58;12.10;99.90
13682;DHT22;6913;49.892;7.936;2023-12-28T10:27:26;12.00;99.90
13682;DHT22;6913;49.892;7.936;2023-12-28T10:29:54;11.90;99.90
13682;DHT22;6913;49.892;7.936;2023-12-28T10:32:21;12.00;99.90
13682;DHT22;6913;49.892;7.936;2023-12-28T10:34:51;12.10;99.90
13682;DHT22;6913;49.892;7.936;2023-12-28T10:37:19;12.20;99.90
13682;DHT22;6913;49.892;7.936;2023-12-28T10:39:47;12.30;99.90
13682;DHT22;6913;49.892;7.936;2023-12-28T10:42:22;12.30;99.90
13682;DHT22;6913;49.892;7.936;2023-12-28T10:44:53;12.30;99.90
13682;DHT22;6913;49.892;7.936;2023-12-28T10:47:25;12.50;99.90
13682;DHT22;6913;49.892;7.936;2023-12-28T10:49:53;12.50;99.90
13682;DHT22;6913;49.892;7.936;2023-12-28T10:52:21;12.30;99.90
13682;DHT22;6913;49.892;7.936;2023-12-28T10:57:46;12.40;99.90
13682;DHT22;6913;49.892;7.936;2023-12-28T11:00:17;12.40;99.90
13682;DHT22;6913;49.892;7.936;2023-12-28T11:02:47;12.20;99.90
13682;DHT22;6913;49.892;7.936;2023-12-28T11:05:17;12.30;99.90
13682;DHT22;6913;49.892;7.936;2023-12-28T11:07:47;12.20;99.90
13682;DHT22;6913;49.892;7.936;2023-12-28T11:10:18;11.90;99.90
13682;DHT22;6913;49.892;7.936;2023-12-28T11:12:48;11.90;99.90
13682;DHT22;6913;49.892;7.936;2023-12-28T11:15:17;11.70;99.90
13682;DHT22;6913;49.892;7.936;2023-12-28T11:17:45;11.60;99.90
13682;DHT22;6913;49.892;7.936;2023-12-28T11:20:13;11.70;99.90
13682;DHT22;6913;49.892;7.936;2023-12-28T11:22:40;11.70;99.90
13682;DHT22;6913;49.892;7.936;2023-12-28T11:25:14;11.60;99.90
13682;DHT22;6913;49.892;7.936;2023-12-28T11:27:41;11.60;99.90
13682;DHT22;6913;49.892;7.936;2023-12-28T11:30:11;11.60;99.90
13682;DHT22;6913;49.892;7.936;2023-12-28T11:32:40;11.60;99.90
13682;DHT22;6913;49.892;7.936;2023-12-28T11:35:08;11.60;99.90
13682;DHT22;6913;49.892;7.936;2023-12-28T11:37:37;11.60;99.90
13682;DHT22;6913;49.892;7.936;2023-12-28T11:40:13;11.60;99.90
13682;DHT22;6913;49.892;7.936;2023-12-28T11:42:49;11.60;99.90
13682;DHT22;6913;49.892;7.936;2023-12-28T11:45:18;11.50;99.90
13682;DHT22;6913;49.892;7.936;2023-12-28T11:47:46;11.50;99.90
13682;DHT22;6913;49.892;7.936;2023-12-28T11:50:13;11.50;99.90
13682;DHT22;6913;49.892;7.936;2023-12-28T11:52:40;11.60;99.90
13682;DHT22;6913;49.892;7.936;2023-12-28T11:55:07;11.70;99.90
13682;DHT22;6913;49.892;7.936;2023-12-28T11:57:36;11.60;99.90
13682;DHT22;6913;49.892;7.936;2023-12-28T12:00:04;11.70;99.90
13682;DHT22;6913;49.892;7.936;2023-12-28T12:02:34;11.70;99.90
13682;DHT22;6913;49.892;7.936;2023-12-28T12:05:00;11.70;99.90
13682;DHT22;6913;49.892;7.936;2023-12-28T12:07:28;11.70;99.90
13682;DHT22;6913;49.892;7.936;2023-12-28T12:09:56;11.70;99.90
13682;DHT22;6913;49.892;7.936;2023-12-28T12:12:23;11.70;99.90
13682;DHT22;6913;49.892;7.936;2023-12-28T12:14:50;11.60;99.90
13682;DHT22;6913;49.892;7.936;2023-12-28T12:17:17;11.60;99.90
13682;DHT22;6913;49.892;7.936;2023-12-28T12:19:46;11.60;99.90
13682;DHT22;6913;49.892;7.936;2023-12-28T12:22:15;11.70;99.90
13682;DHT22;6913;49.892;7.936;2023-12-28T12:24:44;11.60;99.90
13682;DHT22;6913;49.892;7.936;2023-12-28T12:27:11;11.90;99.90
13682;DHT22;6913;49.892;7.936;2023-12-28T12:29:38;11.70;99.90
13682;DHT22;6913;49.892;7.936;2023-12-28T12:32:05;11.60;99.90
13682;DHT22;6913;49.892;7.936;2023-12-28T12:34:33;11.60;99.90
13682;DHT22;6913;49.892;7.936;2023-12-28T12:37:01;11.60;99.90
13682;DHT22;6913;49.892;7.936;2023-12-28T12:39:30;11.50;99.90
13682;DHT22;6913;49.892;7.936;2023-12-28T12:41:58;11.50;99.90
13682;DHT22;6913;49.892;7.936;2023-12-28T12:44:25;11.50;99.90
13682;DHT22;6913;49.892;7.936;2023-12-28T12:46:57;11.40;99.90
13682;DHT22;6913;49.892;7.936;2023-12-28T12:49:24;11.40;99.90
13682;DHT22;6913;49.892;7.936;2023-12-28T12:51:51;11.40;99.90
13682;DHT22;6913;49.892;7.936;2023-12-28T12:54:20;11.30;99.90
13682;DHT22;6913;49.892;7.936;2023-12-28T12:56:47;11.30;99.90
13682;DHT22;6913;49.892;7.936;2023-12-28T12:59:13;11.30;99.90
13682;DHT22;6913;49.892;7.936;2023-12-28T13:01:43;11.40;99.90
13682;DHT22;6913;49.892;7.936;2023-12-28T13:04:10;11.40;99.90
13682;DHT22;6913;49.892;7.936;2023-12-28T13:06:37;11.40;99.90
13682;DHT22;6913;49.892;7.936;2023-12-28T13:09:04;11.40;99.90
13682;DHT22;6913;49.892;7.936;2023-12-28T13:11:33;11.40;99.90
13682;DHT22;6913;49.892;7.936;2023-12-28T13:14:00;11.40;99.90
13682;DHT22;6913;49.892;7.936;2023-12-28T13:16:27;11.30;99.90
13682;DHT22;6913;49.892;7.936;2023-12-28T13:18:54;11.30;99.90
13682;DHT22;6913;49.892;7.936;2023-12-28T13:21:21;11.30;99.90
13682;DHT22;6913;49.892;7.936;2023-12-28T13:23:47;11.20;99.90
13682;DHT22;6913;49.892;7.936;2023-12-28T13:26:14;11.20;99.90
13682;DHT22;6913;49.892;7.936;2023-12-28T13:28:42;11.20;99.90
13682;DHT22;6913;49.892;7.936;2023-12-28T13:31:09;11.20;99.90
13682;DHT22;6913;49.892;7.936;2023-12-28T13:33:36;11.10;99.90
13682;DHT22;6913;49.892;7.936;2023-12-28T13:36:03;11.10;99.90
13682;DHT22;6913;49.892;7.936;2023-12-28T13:38:30;11.10;99.90
13682;DHT22;6913;49.892;7.936;2023-12-28T13:40:57;11.00;99.90
13682;DHT22;6913;49.892;7.936;2023-12-28T13:43:24;10.90;99.90
13682;DHT22;6913;49.892;7.936;2023-12-28T13:45:52;10.90;99.90
13682;DHT22;6913;49.892;7.936;2023-12-28T13:48:19;10.90;99.90
13682;DHT22;6913;49.892;7.936;2023-12-28T13:50:45;10.90;99.90
13682;DHT22;6913;49.892;7.936;2023-12-28T13:53:12;11.00;99.90
13682;DHT22;6913;49.892;7.936;2023-12-28T13:55:39;11.00;99.90
13682;DHT22;6913;49.892;7.936;2023-12-28T13:58:06;11.10;99.90
13682;DHT22;6913;49.892;7.936;2023-12-28T14:00:33;11.00;99.90
13682;DHT22;6913;49.892;7.936;2023-12-28T14:03:02;11.10;99.90
13682;DHT22;6913;49.892;7.936;2023-12-28T14:05:29;11.10;99.90
13682;DHT22;6913;49.892;7.936;2023-12-28T14:07:57;11.00;99.90
13682;DHT22;6913;49.892;7.936;2023-12-28T14:10:23;11.30;99.90
13682;DHT22;6913;49.892;7.936;2023-12-28T14:12:50;11.00;99.90
13682;DHT22;6913;49.892;7.936;2023-12-28T14:15:17;11.00;99.90
13682;DHT22;6913;49.892;7.936;2023-12-28T14:17:44;11.00;99.90
13682;DHT22;6913;49.892;7.936;2023-12-28T14:20:12;11.10;99.90
13682;DHT22;6913;49.892;7.936;2023-12-28T14:22:39;10.80;99.90
13682;DHT22;6913;49.892;7.936;2023-12-28T14:25:07;10.70;99.90
13682;DHT22;6913;49.892;7.936;2023-12-28T14:27:36;10.70;99.90
13682;DHT22;6913;49.892;7.936;2023-12-28T14:30:04;10.70;99.90
13682;DHT22;6913;49.892;7.936;2023-12-28T14:32:32;10.60;99.90
13682;DHT22;6913;49.892;7.936;2023-12-28T14:34:59;10.60;99.90
13682;DHT22;6913;49.892;7.936;2023-12-28T14:37:27;10.60;99.90
13682;DHT22;6913;49.892;7.936;2023-12-28T14:39:54;10.60;99.90
13682;DHT22;6913;49.892;7.936;2023-12-28T14:42:21;10.60;99.90
13682;DHT22;6913;49.892;7.936;2023-12-28T14:44:48;10.50;99.90
13682;DHT22;6913;49.892;7.936;2023-12-28T14:47:16;10.50;99.90
13682;DHT22;6913;49.892;7.936;2023-12-28T14:49:43;10.40;99.90
13682;DHT22;6913;49.892;7.936;2023-12-28T14:52:11;10.40;99.90
13682;DHT22;6913;49.892;7.936;2023-12-28T14:54:39;10.40;99.90
13682;DHT22;6913;49.892;7.936;2023-12-28T14:57:06;10.40;99.90
13682;DHT22;6913;49.892;7.936;2023-12-28T14:59:32;10.30;99.90
13682;DHT22;6913;49.892;7.936;2023-12-28T15:01:59;10.40;99.90
13682;DHT22;6913;49.892;7.936;2023-12-28T15:04:26;10.40;99.90
13682;DHT22;6913;49.892;7.936;2023-12-28T15:06:53;10.40;99.90
13682;DHT22;6913;49.892;7.936;2023-12-28T15:09:20;10.40;99.90
13682;DHT22;6913;49.892;7.936;2023-12-28T15:11:48;10.40;99.90
13682;DHT22;6913;49.892;7.936;2023-12-28T15:14:16;10.40;99.90
13682;DHT22;6913;49.892;7.936;2023-12-28T15:16:43;10.30;99.90
13682;DHT22;6913;49.892;7.936;2023-12-28T15:19:11;10.30;99.90
13682;DHT22;6913;49.892;7.936;2023-12-28T15:21:38;10.20;99.90
13682;DHT22;6913;49.892;7.936;2023-12-28T15:24:06;10.20;99.90
13682;DHT22;6913;49.892;7.936;2023-12-28T15:26:33;10.20;99.90
13682;DHT22;6913;49.892;7.936;2023-12-28T15:29:01;10.20;99.90
13682;DHT22;6913;49.892;7.936;2023-12-28T15:31:28;10.20;99.90
13682;DHT22;6913;49.892;7.936;2023-12-28T15:33:55;10.10;99.90
13682;DHT22;6913;49.892;7.936;2023-12-28T15:36:22;10.10;99.90
13682;DHT22;6913;49.892;7.936;2023-12-28T15:38:49;10.10;99.90
13682;DHT22;6913;49.892;7.936;2023-12-28T15:41:16;10.10;99.90
13682;DHT22;6913;49.892;7.936;2023-12-28T15:43:43;10.10;99.90
13682;DHT22;6913;49.892;7.936;2023-12-28T15:46:11;9.90;99.90
13682;DHT22;6913;49.892;7.936;2023-12-28T15:48:37;10.00;99.90
13682;DHT22;6913;49.892;7.936;2023-12-28T15:51:04;9.90;99.90
13682;DHT22;6913;49.892;7.936;2023-12-28T15:53:31;9.90;99.90
13682;DHT22;6913;49.892;7.936;2023-12-28T15:55:58;10.40;99.90
13682;DHT22;6913;49.892;7.936;2023-12-28T15:58:25;9.90;99.90